Time;durP1;ratioP1;P1;durP2;ratioP2;P2;SDS_P1;SDS_P2;PMS_P1;PMS_P2;Temp;Humidity;BMP_temperature;BMP_pressure;BME280_temperature;BME280_humidity;BME280_pressure;Samples;Min_cycle;Max_cycle;Signal;HPM_P1;HPM_P2
2022/09/01 00:00:27;;;;;;;31.57;28.30;;;16.80;99.90;;;;;;5055030;28;20999;-77
2022/09/01 00:02:54;;;;;;;29.70;26.90;;;16.80;99.90;;;;;;5055149;28;20484;-76
2022/09/01 00:05:22;;;;;;;31.50;28.20;;;16.70;99.90;;;;;;5054656;28;20457;-77
2022/09/01 00:07:49;;;;;;;32.80;29.83;;;16.70;99.90;;;;;;5055317;28;20526;-75
2022/09/01 00:10:16;;;;;;;28.70;26.07;;;16.70;99.90;;;;;;5055115;28;20576;-77
2022/09/01 00:12:44;;;;;;;28.73;25.90;;;16.70;99.90;;;;;;5055350;28;20441;-78
2022/09/01 00:15:12;;;;;;;29.63;26.63;;;16.70;99.90;;;;;;5054758;28;20461;-77
2022/09/01 00:17:39;;;;;;;30.37;27.50;;;16.70;99.90;;;;;;5054771;28;20448;-77
2022/09/01 00:20:07;;;;;;;28.60;25.80;;;16.70;99.90;;;;;;5055007;28;20881;-78
2022/09/01 00:22:34;;;;;;;28.33;25.83;;;16.70;99.90;;;;;;5054394;28;20459;-77
2022/09/01 00:25:01;;;;;;;30.30;27.37;;;16.60;99.90;;;;;;5054752;28;20449;-75
2022/09/01 00:27:27;;;;;;;30.90;28.00;;;16.60;99.90;;;;;;5054452;28;20444;-76
2022/09/01 00:29:55;;;;;;;29.97;26.87;;;16.60;99.90;;;;;;5054354;28;21016;-78
2022/09/01 00:32:22;;;;;;;30.37;27.37;;;16.60;99.90;;;;;;5054657;28;20463;-76
2022/09/01 00:34:49;;;;;;;29.47;26.90;;;16.60;99.90;;;;;;5054722;28;20506;-76
2022/09/01 00:37:15;;;;;;;29.83;27.03;;;16.60;99.90;;;;;;5053348;28;20874;-77
2022/09/01 00:39:42;;;;;;;31.67;28.57;;;16.50;99.90;;;;;;5054415;28;20815;-76
2022/09/01 00:42:09;;;;;;;30.97;27.77;;;16.50;99.90;;;;;;5054520;28;20510;-76
2022/09/01 00:44:37;;;;;;;28.30;25.70;;;16.50;99.90;;;;;;5056201;28;20460;-76
2022/09/01 00:47:05;;;;;;;30.20;27.50;;;16.50;99.90;;;;;;5055817;28;20453;-77
2022/09/01 00:49:36;;;;;;;28.63;26.10;;;16.50;99.90;;;;;;5053988;28;20496;-77
2022/09/01 00:52:06;;;;;;;29.73;27.03;;;16.50;99.90;;;;;;5054338;28;20851;-76
2022/09/01 00:54:38;;;;;;;30.13;27.43;;;16.40;99.90;;;;;;5055872;28;20535;-76
2022/09/01 00:57:08;;;;;;;31.00;27.70;;;16.40;99.90;;;;;;5057642;28;20463;-77
2022/09/01 00:59:38;;;;;;;31.13;28.30;;;16.40;99.90;;;;;;5054437;28;20491;-76
2022/09/01 01:02:06;;;;;;;30.80;27.80;;;16.40;99.90;;;;;;5054091;28;20455;-76
2022/09/01 01:04:33;;;;;;;31.73;28.63;;;16.40;99.90;;;;;;5055326;28;20464;-75
2022/09/01 01:07:01;;;;;;;31.50;28.30;;;16.30;99.90;;;;;;5053351;28;21168;-76
2022/09/01 01:09:32;;;;;;;28.63;25.73;;;16.30;99.90;;;;;;5054173;28;20976;-77
2022/09/01 01:12:01;;;;;;;29.30;26.60;;;16.30;99.90;;;;;;5059172;28;20456;-76
2022/09/01 01:14:30;;;;;;;28.77;26.07;;;16.30;99.90;;;;;;5056733;28;20444;-77
2022/09/01 01:16:57;;;;;;;30.23;27.13;;;16.30;99.90;;;;;;5054979;28;20455;-75
2022/09/01 01:25:13;;;;;;;29.67;26.60;;;16.30;99.90;;;;;;5053545;28;20487;-76
2022/09/01 01:27:41;;;;;;;30.67;27.63;;;16.20;99.90;;;;;;5054571;28;20452;-77
2022/09/01 01:30:09;;;;;;;31.07;28.30;;;16.20;99.90;;;;;;5053340;28;20527;-77
2022/09/01 01:32:37;;;;;;;28.13;25.43;;;16.20;99.90;;;;;;5053476;28;20472;-77
2022/09/01 01:35:05;;;;;;;30.23;27.47;;;16.20;99.90;;;;;;5055677;28;20495;-78
2022/09/01 01:37:34;;;;;;;29.07;26.27;;;16.20;99.90;;;;;;5053844;28;20860;-76
2022/09/01 01:40:01;;;;;;;31.00;27.87;;;16.10;99.90;;;;;;5054073;28;20546;-77
2022/09/01 01:42:30;;;;;;;28.20;25.27;;;16.10;99.90;;;;;;5053712;28;20449;-77
2022/09/01 01:44:57;;;;;;;25.63;23.17;;;16.10;99.90;;;;;;5053709;28;20448;-77
2022/09/01 01:47:24;;;;;;;26.67;24.27;;;16.10;99.90;;;;;;5053334;28;20449;-77
2022/09/01 01:49:52;;;;;;;26.47;23.97;;;16.10;99.90;;;;;;5054555;28;20475;-77
2022/09/01 01:52:20;;;;;;;27.80;25.13;;;16.10;99.90;;;;;;5053278;28;20459;-77
2022/09/01 01:54:47;;;;;;;29.60;26.83;;;16.10;99.90;;;;;;5053236;28;20453;-77
2022/09/01 01:57:16;;;;;;;30.03;27.07;;;16.00;99.90;;;;;;5052923;28;20444;-76
2022/09/01 01:59:45;;;;;;;28.87;26.27;;;16.00;99.90;;;;;;5052844;28;20477;-77
2022/09/01 02:02:11;;;;;;;33.57;30.27;;;15.90;99.90;;;;;;5053087;28;20449;-77
2022/09/01 02:04:39;;;;;;;34.93;28.37;;;15.90;99.90;;;;;;5052919;28;20447;-77
2022/09/01 02:07:10;;;;;;;31.97;28.37;;;15.90;99.90;;;;;;5055890;28;20906;-77
2022/09/01 02:09:38;;;;;;;34.27;29.07;;;15.80;99.90;;;;;;5052846;28;20464;-78
2022/09/01 02:12:06;;;;;;;31.33;28.43;;;15.80;99.90;;;;;;5053138;28;20484;-77
2022/09/01 02:14:33;;;;;;;32.07;28.73;;;15.80;99.90;;;;;;5052638;28;20855;-77
2022/09/01 02:17:06;;;;;;;31.03;28.10;;;15.80;99.90;;;;;;5053155;28;20874;-77
2022/09/01 02:19:35;;;;;;;31.43;28.17;;;15.80;99.90;;;;;;5052538;28;20473;-76
2022/09/01 02:22:02;;;;;;;29.23;26.43;;;15.80;99.90;;;;;;5052361;28;20977;-76
2022/09/01 02:24:30;;;;;;;28.40;25.87;;;15.80;99.90;;;;;;5052196;28;20441;-75
2022/09/01 02:26:59;;;;;;;31.87;28.60;;;15.80;99.90;;;;;;5052038;28;20493;-76
2022/09/01 02:29:27;;;;;;;29.63;26.73;;;15.80;99.90;;;;;;5052120;28;20455;-76
2022/09/01 02:31:55;;;;;;;34.80;31.10;;;15.90;99.90;;;;;;5052056;28;20508;-76
2022/09/01 02:34:27;;;;;;;34.13;30.53;;;15.90;99.90;;;;;;5052638;28;20479;-76
2022/09/01 02:36:55;;;;;;;32.53;29.23;;;15.90;99.90;;;;;;5051884;28;20449;-76
2022/09/01 02:39:26;;;;;;;33.83;30.43;;;15.80;99.90;;;;;;5052664;28;20456;-77
2022/09/01 02:41:53;;;;;;;33.97;30.97;;;15.80;99.90;;;;;;5052728;28;20477;-77
2022/09/01 02:44:21;;;;;;;35.10;31.57;;;15.70;99.90;;;;;;5052859;28;20483;-77
2022/09/01 02:46:49;;;;;;;33.17;29.40;;;15.70;99.90;;;;;;5051934;28;21135;-75
2022/09/01 02:49:18;;;;;;;35.80;32.10;;;15.70;99.90;;;;;;5052018;28;21100;-76
2022/09/01 02:51:52;;;;;;;32.70;29.70;;;15.60;99.90;;;;;;5052280;28;20480;-77
2022/09/01 02:54:23;;;;;;;34.10;30.67;;;15.60;99.90;;;;;;5052801;28;20441;-77
2022/09/01 02:56:53;;;;;;;32.63;29.47;;;15.60;99.90;;;;;;5052108;28;20483;-75
2022/09/01 02:59:21;;;;;;;32.00;28.80;;;15.60;99.90;;;;;;5051569;28;20445;-77
2022/09/01 03:01:49;;;;;;;33.03;30.03;;;15.60;99.90;;;;;;5055946;28;20529;-77
2022/09/01 03:04:18;;;;;;;32.60;29.40;;;15.50;99.90;;;;;;5054661;28;20978;-77
2022/09/01 03:06:46;;;;;;;29.80;26.80;;;15.50;99.90;;;;;;5051767;28;20456;-77
2022/09/01 03:09:16;;;;;;;30.30;27.33;;;15.60;99.90;;;;;;5054087;28;20471;-77
2022/09/01 03:11:45;;;;;;;32.83;29.60;;;15.60;99.90;;;;;;5053893;28;20491;-77
2022/09/01 03:14:13;;;;;;;30.03;27.17;;;15.60;99.90;;;;;;5052576;28;20449;-77
2022/09/01 03:16:40;;;;;;;28.77;26.07;;;15.60;99.90;;;;;;5052141;28;20941;-77
2022/09/01 03:19:08;;;;;;;25.77;23.30;;;15.60;99.90;;;;;;5054954;28;20448;-77
2022/09/01 03:21:38;;;;;;;26.50;24.10;;;15.60;99.90;;;;;;5052766;28;20473;-76
2022/09/01 03:24:07;;;;;;;24.30;22.07;;;15.60;99.90;;;;;;5051991;28;20461;-76
2022/09/01 03:26:35;;;;;;;25.90;23.07;;;15.50;99.90;;;;;;5052316;28;20514;-76
2022/09/01 03:29:03;;;;;;;24.87;22.53;;;15.50;99.90;;;;;;5051684;28;20441;-77
2022/09/01 03:31:30;;;;;;;26.63;24.07;;;15.50;99.90;;;;;;5051366;28;20485;-76
2022/09/01 03:33:57;;;;;;;24.07;21.83;;;15.50;99.90;;;;;;5051527;28;20448;-76
2022/09/01 03:36:24;;;;;;;24.43;22.03;;;15.50;99.90;;;;;;5051257;28;20452;-76
2022/09/01 03:38:52;;;;;;;27.90;25.20;;;15.50;99.90;;;;;;5051575;28;20602;-77
2022/09/01 03:41:23;;;;;;;28.60;25.93;;;15.50;99.90;;;;;;5052734;28;20495;-76
2022/09/01 03:43:53;;;;;;;25.90;23.27;;;15.50;99.90;;;;;;5051606;28;20449;-76
2022/09/01 03:46:21;;;;;;;25.20;22.90;;;15.50;99.90;;;;;;5051325;28;20448;-76
2022/09/01 03:48:51;;;;;;;25.03;22.40;;;15.50;99.90;;;;;;5052083;28;20507;-77
2022/09/01 03:51:20;;;;;;;24.97;22.57;;;15.50;99.90;;;;;;5051584;28;21008;-77
2022/09/01 03:53:48;;;;;;;28.30;25.60;;;15.40;99.90;;;;;;5051361;28;20456;-76
2022/09/01 03:56:15;;;;;;;23.70;21.40;;;15.30;99.90;;;;;;5051413;28;20866;-77
2022/09/01 03:58:45;;;;;;;25.40;22.87;;;15.30;99.90;;;;;;5051277;28;20559;-76
2022/09/01 04:01:13;;;;;;;25.23;22.90;;;15.30;99.90;;;;;;5051090;28;20465;-76
2022/09/01 04:03:40;;;;;;;24.33;22.00;;;15.30;99.90;;;;;;5051330;28;20453;-76
2022/09/01 04:06:10;;;;;;;25.40;22.97;;;15.30;99.90;;;;;;5051724;28;20433;-76
2022/09/01 04:08:37;;;;;;;25.03;22.50;;;15.30;99.90;;;;;;5051352;28;20453;-75
2022/09/01 04:11:12;;;;;;;23.07;20.87;;;15.30;99.90;;;;;;5053569;28;20484;-77
2022/09/01 04:13:41;;;;;;;24.53;22.23;;;15.30;99.90;;;;;;5055253;28;20448;-75
2022/09/01 04:18:04;;;;;;;26.27;23.80;;;15.30;99.90;;;;;;5054870;28;20451;-75
2022/09/01 04:19:14;;;;;;;24.07;21.83;;;15.30;99.90;;;;;;5055406;28;20437;-77
2022/09/01 04:21:42;;;;;;;27.50;25.00;;;15.40;99.90;;;;;;5055473;28;20444;-76
2022/09/01 04:24:10;;;;;;;25.63;23.03;;;15.40;99.90;;;;;;5053769;28;20473;-76
2022/09/01 04:26:37;;;;;;;27.50;24.90;;;15.30;99.90;;;;;;5057187;28;20453;-77
2022/09/01 04:29:05;;;;;;;24.70;22.30;;;15.30;99.90;;;;;;5057411;28;20477;-77
2022/09/01 04:31:34;;;;;;;25.50;23.17;;;15.20;99.90;;;;;;5054905;28;20919;-77
2022/09/01 04:34:00;;;;;;;26.33;23.83;;;15.20;99.90;;;;;;5055357;28;20834;-76
2022/09/01 04:36:32;;;;;;;25.40;23.00;;;15.20;99.90;;;;;;5060269;28;20428;-77
2022/09/01 04:39:07;;;;;;;25.97;23.43;;;15.30;99.90;;;;;;5056668;28;20881;-75
2022/09/01 04:41:36;;;;;;;25.83;23.50;;;15.20;99.90;;;;;;5054368;28;20601;-77
2022/09/01 04:44:04;;;;;;;33.90;27.93;;;15.20;99.90;;;;;;5054308;28;20463;-77
2022/09/01 04:46:34;;;;;;;31.27;28.13;;;15.20;99.90;;;;;;5054130;28;20449;-76
2022/09/01 04:49:05;;;;;;;31.20;28.23;;;15.20;99.90;;;;;;5054567;28;20532;-77
2022/09/01 04:51:32;;;;;;;30.03;27.13;;;15.20;99.90;;;;;;5054249;28;20534;-77
2022/09/01 04:53:59;;;;;;;29.63;26.80;;;15.20;99.90;;;;;;5053625;28;20445;-77
2022/09/01 04:56:34;;;;;;;28.60;26.10;;;15.20;99.90;;;;;;5054086;28;20452;-77
2022/09/01 04:59:01;;;;;;;29.73;26.93;;;15.30;99.90;;;;;;5054363;28;20471;-76
2022/09/01 05:01:28;;;;;;;28.30;25.50;;;15.30;99.90;;;;;;5055231;28;21017;-77
2022/09/01 05:03:58;;;;;;;30.57;27.60;;;15.30;99.90;;;;;;5057047;28;20919;-76
2022/09/01 05:06:25;;;;;;;30.20;27.17;;;15.30;99.90;;;;;;5053640;28;20532;-76
2022/09/01 05:08:52;;;;;;;34.60;26.10;;;15.30;99.90;;;;;;5053270;28;20449;-76
2022/09/01 05:11:19;;;;;;;29.23;26.47;;;15.40;99.90;;;;;;5052797;28;20906;-76
2022/09/01 05:13:48;;;;;;;30.43;27.43;;;15.50;99.90;;;;;;5054445;28;20500;-76
2022/09/01 05:16:19;;;;;;;27.83;25.17;;;15.50;99.90;;;;;;5055300;28;20460;-76
2022/09/01 05:18:48;;;;;;;26.73;24.20;;;15.70;99.90;;;;;;5054529;28;20452;-76
2022/09/01 05:21:20;;;;;;;25.80;23.10;;;15.70;99.90;;;;;;5053714;28;20881;-76
2022/09/01 05:23:50;;;;;;;24.73;22.47;;;15.70;99.90;;;;;;5053540;28;20452;-76
2022/09/01 05:26:19;;;;;;;24.60;22.30;;;15.70;99.90;;;;;;5053614;28;20449;-75
2022/09/01 05:28:47;;;;;;;26.33;23.87;;;15.70;99.90;;;;;;5053746;28;20518;-76
2022/09/01 05:31:18;;;;;;;24.87;22.53;;;15.80;99.90;;;;;;5053216;28;20484;-76
2022/09/01 05:33:47;;;;;;;23.93;21.50;;;15.90;99.90;;;;;;5053622;28;20544;-76
2022/09/01 05:36:16;;;;;;;25.40;22.90;;;15.90;99.90;;;;;;5053162;28;20476;-75
2022/09/01 05:38:44;;;;;;;24.10;21.83;;;16.00;99.90;;;;;;5053231;28;20445;-76
2022/09/01 05:41:14;;;;;;;21.40;19.53;;;16.10;99.90;;;;;;5053251;28;20473;-76
2022/09/01 05:43:44;;;;;;;23.27;21.20;;;16.10;99.90;;;;;;5053128;28;20946;-75
2022/09/01 05:46:11;;;;;;;22.90;20.57;;;16.20;99.90;;;;;;5053215;28;20912;-76
2022/09/01 05:48:39;;;;;;;22.53;20.10;;;16.20;99.90;;;;;;5053182;28;20971;-76
2022/09/01 05:51:07;;;;;;;21.13;19.03;;;16.40;99.90;;;;;;5053160;28;20551;-76
2022/09/01 05:53:36;;;;;;;22.53;20.40;;;16.50;99.90;;;;;;5053011;28;20448;-75
2022/09/01 05:56:08;;;;;;;21.20;19.40;;;16.60;99.90;;;;;;5052653;28;20536;-76
2022/09/01 05:58:35;;;;;;;24.00;21.63;;;16.70;99.90;;;;;;5052912;28;20453;-76
2022/09/01 06:01:02;;;;;;;22.90;20.53;;;16.70;99.90;;;;;;5052873;28;20465;-76
2022/09/01 06:03:30;;;;;;;23.17;21.17;;;16.80;99.90;;;;;;5052773;28;20762;-76
2022/09/01 06:06:02;;;;;;;23.60;21.60;;;16.90;99.90;;;;;;5052715;28;20452;-76
2022/09/01 06:08:29;;;;;;;21.70;19.57;;;17.00;99.90;;;;;;5052797;28;20961;-76
2022/09/01 06:10:57;;;;;;;22.30;20.00;;;17.10;99.90;;;;;;5052680;28;20491;-76
2022/09/01 06:13:24;;;;;;;21.43;19.53;;;17.20;99.90;;;;;;5052571;28;20551;-76
2022/09/01 06:15:52;;;;;;;21.50;19.40;;;17.30;99.90;;;;;;5056281;28;20451;-76
2022/09/01 06:18:20;;;;;;;20.73;18.97;;;17.40;99.90;;;;;;5054669;28;20978;-75
2022/09/01 06:20:48;;;;;;;22.83;20.80;;;17.50;99.90;;;;;;5079934;22;20493;-85
2022/09/01 06:23:16;;;;;;;20.70;18.90;;;17.60;99.90;;;;;;5055705;28;20544;-85
2022/09/01 06:25:45;;;;;;;22.03;19.93;;;17.70;99.90;;;;;;5055604;28;20453;-85
2022/09/01 06:28:15;;;;;;;20.80;18.70;;;17.80;99.90;;;;;;5055764;28;20476;-85
2022/09/01 06:30:43;;;;;;;20.13;18.00;;;17.80;99.90;;;;;;5063883;28;20484;-84
2022/09/01 06:33:12;;;;;;;23.53;21.37;;;17.90;99.90;;;;;;5062581;28;20481;-84
2022/09/01 06:35:40;;;;;;;19.77;17.83;;;18.00;99.90;;;;;;5067578;28;20441;-85
2022/09/01 06:38:11;;;;;;;20.60;18.40;;;18.30;99.90;;;;;;5076806;28;20468;-85
2022/09/01 06:40:40;;;;;;;19.33;17.53;;;18.40;99.90;;;;;;5070051;28;20485;-85
2022/09/01 06:43:08;;;;;;;21.27;19.27;;;18.50;99.90;;;;;;5054602;28;20476;-85
2022/09/01 06:45:40;;;;;;;21.03;19.17;;;18.60;99.90;;;;;;5053653;28;20451;-85
2022/09/01 06:48:08;;;;;;;20.17;18.40;;;18.60;99.90;;;;;;5054333;28;20444;-85
2022/09/01 06:50:38;;;;;;;21.60;19.60;;;18.70;99.90;;;;;;5059657;28;20452;-85
2022/09/01 06:53:09;;;;;;;20.93;19.03;;;18.90;99.90;;;;;;5074744;28;20464;-80
2022/09/01 06:55:37;;;;;;;19.67;17.80;;;19.00;99.90;;;;;;5074705;28;20441;-84
2022/09/01 06:58:06;;;;;;;21.43;19.40;;;19.20;99.90;;;;;;5057146;28;20445;-84
2022/09/01 07:00:36;;;;;;;19.90;17.97;;;19.40;99.90;;;;;;5055210;28;20479;-85
2022/09/01 07:03:08;;;;;;;21.10;19.03;;;19.50;99.90;;;;;;5054678;28;20444;-84
2022/09/01 07:05:38;;;;;;;21.13;18.97;;;19.70;99.90;;;;;;5056766;28;20453;-85
2022/09/01 07:08:08;;;;;;;20.50;18.60;;;19.80;99.90;;;;;;5065427;28;20459;-85
2022/09/01 07:10:44;;;;;;;20.00;18.03;;;20.00;99.90;;;;;;5067566;28;20541;-85
2022/09/01 07:13:21;;;;;;;19.83;17.83;;;20.20;99.90;;;;;;5073331;28;20536;-85
2022/09/01 07:15:49;;;;;;;20.23;17.93;;;20.50;99.90;;;;;;5070757;28;20444;-85
2022/09/01 07:18:20;;;;;;;21.23;18.53;;;21.00;99.90;;;;;;5065713;28;20808;-84
2022/09/01 07:20:47;;;;;;;19.70;17.90;;;21.00;99.90;;;;;;5074364;28;20496;-84
2022/09/01 07:23:16;;;;;;;18.93;17.20;;;21.00;99.90;;;;;;5064169;28;20452;-84
2022/09/01 07:25:46;;;;;;;19.07;17.37;;;21.20;99.90;;;;;;5055488;28;20473;-84
2022/09/01 07:28:14;;;;;;;19.53;18.03;;;21.20;99.90;;;;;;5056452;28;20441;-85
2022/09/01 07:30:42;;;;;;;18.83;17.13;;;21.30;99.90;;;;;;5057048;28;20478;-84
2022/09/01 07:33:11;;;;;;;19.17;17.37;;;21.30;99.90;;;;;;5053880;28;20538;-86
2022/09/01 07:35:41;;;;;;;19.93;18.13;;;21.40;99.90;;;;;;5066409;28;20454;-86
2022/09/01 07:38:09;;;;;;;17.03;15.60;;;21.20;99.90;;;;;;5069893;28;20455;-85
2022/09/01 07:40:37;;;;;;;15.57;14.30;;;21.40;99.90;;;;;;5064202;28;20451;-85
2022/09/01 07:43:08;;;;;;;15.80;14.40;;;21.70;99.90;;;;;;5067980;28;20441;-85
2022/09/01 07:45:37;;;;;;;15.53;14.03;;;21.80;99.90;;;;;;5057578;28;20452;-84
2022/09/01 07:48:06;;;;;;;15.80;14.43;;;22.50;99.90;;;;;;5058373;28;20961;-84
2022/09/01 07:50:34;;;;;;;15.90;14.33;;;23.00;99.90;;;;;;5056712;28;20464;-85
2022/09/01 07:53:03;;;;;;;13.07;11.97;;;23.00;99.90;;;;;;5056905;28;20484;-85
2022/09/01 07:55:30;;;;;;;12.90;11.80;;;22.70;99.90;;;;;;5060816;28;20532;-87
2022/09/01 07:57:58;;;;;;;13.40;12.27;;;22.40;99.90;;;;;;5061269;28;20457;-85
2022/09/01 08:00:27;;;;;;;12.47;11.47;;;22.10;99.90;;;;;;5059781;28;20444;-85
2022/09/01 08:02:54;;;;;;;12.33;11.13;;;21.90;99.90;;;;;;5056417;28;20445;-85
2022/09/01 08:05:25;;;;;;;12.00;11.07;;;21.60;99.90;;;;;;5056168;28;20440;-85
2022/09/01 08:07:53;;;;;;;11.50;10.60;;;21.60;99.90;;;;;;5056098;28;20448;-85
2022/09/01 08:10:21;;;;;;;13.63;12.47;;;21.20;99.90;;;;;;5056699;28;20449;-85
2022/09/01 08:12:48;;;;;;;13.30;12.20;;;21.20;99.90;;;;;;5056578;28;20480;-85
2022/09/01 08:15:16;;;;;;;12.87;11.57;;;21.00;99.90;;;;;;5057145;28;20483;-86
2022/09/01 08:17:43;;;;;;;14.33;12.53;;;21.00;99.90;;;;;;5056792;28;20941;-85
2022/09/01 08:20:11;;;;;;;12.30;11.30;;;21.00;99.90;;;;;;5056534;28;20502;-85
2022/09/01 08:22:38;;;;;;;14.73;11.70;;;21.10;99.90;;;;;;5056205;28;20455;-85
2022/09/01 08:25:07;;;;;;;14.00;12.70;;;21.20;99.90;;;;;;5056482;28;20479;-87
2022/09/01 08:27:37;;;;;;;12.37;11.10;;;21.40;99.90;;;;;;5056947;28;20535;-87
2022/09/01 08:30:05;;;;;;;13.20;12.00;;;21.60;99.90;;;;;;5055807;28;20522;-88
2022/09/01 08:32:33;;;;;;;12.37;11.33;;;21.70;99.90;;;;;;5061434;28;20542;-87
2022/09/01 08:35:00;;;;;;;11.83;10.90;;;21.70;99.90;;;;;;5062302;28;20445;-87
2022/09/01 08:37:27;;;;;;;12.27;11.07;;;21.70;99.90;;;;;;5060739;28;20444;-87
2022/09/01 08:39:54;;;;;;;12.13;11.03;;;21.80;99.90;;;;;;5060114;28;20452;-88
2022/09/01 08:42:34;;;;;;;11.17;10.17;;;21.70;99.90;;;;;;5059107;28;20514;-88
2022/09/01 08:45:10;;;;;;;10.47;9.57;;;21.60;99.90;;;;;;5067850;28;20456;-86
2022/09/01 08:47:37;;;;;;;10.83;9.97;;;21.70;99.90;;;;;;5073163;28;20440;-81
2022/09/01 08:50:05;;;;;;;10.30;9.50;;;21.70;99.90;;;;;;5063118;28;20445;-83
2022/09/01 08:52:34;;;;;;;10.57;9.67;;;21.80;99.90;;;;;;5062342;28;20481;-85
2022/09/01 08:55:05;;;;;;;8.43;7.83;;;21.80;99.90;;;;;;5062394;28;20428;-83
2022/09/01 08:57:35;;;;;;;9.40;8.57;;;21.60;99.90;;;;;;5067312;28;20475;-81
2022/09/01 09:00:06;;;;;;;10.47;9.47;;;21.70;99.90;;;;;;5066544;28;20448;-83
2022/09/01 09:02:49;;;;;;;10.70;9.70;;;21.90;99.90;;;;;;5063903;28;20471;-83
2022/09/01 09:05:31;;;;;;;10.13;9.23;;;21.90;99.90;;;;;;5059640;28;20468;-80
2022/09/01 09:08:35;;;;;;;9.67;8.97;;;21.90;99.90;;;;;;5059388;28;20449;-83
2022/09/01 09:11:06;;;;;;;9.50;8.60;;;22.00;99.90;;;;;;5049394;28;20494;-81
2022/09/01 09:13:45;;;;;;;8.87;8.10;;;22.20;99.90;;;;;;5060610;28;20552;-82
2022/09/01 09:16:18;;;;;;;10.47;9.47;;;22.10;99.90;;;;;;5061508;28;20444;-83
2022/09/01 09:18:53;;;;;;;9.33;8.53;;;21.90;99.90;;;;;;5059812;28;20444;-83
2022/09/01 09:21:25;;;;;;;9.70;8.80;;;21.70;99.90;;;;;;5059023;28;20480;-85
2022/09/01 09:23:58;;;;;;;9.50;8.70;;;21.60;99.90;;;;;;5060017;28;20441;-82
2022/09/01 09:26:26;;;;;;;8.70;8.00;;;21.60;99.90;;;;;;5068596;28;20476;-79
2022/09/01 09:28:53;;;;;;;9.80;9.00;;;21.90;99.90;;;;;;5073043;28;20449;-82
2022/09/01 09:31:31;;;;;;;9.30;8.50;;;22.10;99.90;;;;;;5070065;28;20475;-83
2022/09/01 09:33:58;;;;;;;9.90;9.03;;;22.10;99.90;;;;;;5063792;28;20511;-82
2022/09/01 09:36:32;;;;;;;9.73;8.83;;;22.20;99.90;;;;;;5064700;28;20440;-83
2022/09/01 09:39:08;;;;;;;9.33;8.60;;;22.30;99.90;;;;;;5068203;28;20436;-83
2022/09/01 09:41:36;;;;;;;9.83;9.03;;;22.10;99.90;;;;;;5077890;28;20456;-81
2022/09/01 09:44:06;;;;;;;9.43;8.57;;;21.90;99.90;;;;;;5078076;28;20486;-80
2022/09/01 09:46:39;;;;;;;10.37;8.67;;;21.90;99.90;;;;;;5071483;28;20449;-82
2022/09/01 09:49:11;;;;;;;9.93;9.03;;;22.10;99.90;;;;;;5065322;28;20452;-79
2022/09/01 09:51:39;;;;;;;13.20;8.87;;;22.30;99.90;;;;;;5064383;28;20468;-82
2022/09/01 09:54:15;;;;;;;9.07;8.27;;;22.60;99.90;;;;;;5061260;28;20484;-84
2022/09/01 09:56:44;;;;;;;10.00;9.07;;;22.60;99.90;;;;;;5061624;28;20440;-82
2022/09/01 09:59:26;;;;;;;8.70;7.93;;;22.90;99.90;;;;;;5062018;28;20480;-83
2022/09/01 10:01:58;;;;;;;9.30;8.50;;;22.80;99.60;;;;;;5059989;28;20832;-82
2022/09/01 10:04:45;;;;;;;8.43;7.63;;;22.60;99.50;;;;;;5065204;28;20441;-83
2022/09/01 10:07:29;;;;;;;8.67;7.87;;;22.30;99.80;;;;;;5063746;28;20447;-82
2022/09/01 10:09:59;;;;;;;8.10;7.40;;;22.10;99.90;;;;;;5068604;28;20527;-80
2022/09/01 10:12:27;;;;;;;8.50;7.73;;;23.10;99.90;;;;;;5072801;28;20469;-84
2022/09/01 10:14:59;;;;;;;6.30;5.63;;;25.70;96.50;;;;;;5075082;28;20443;-84
2022/09/01 10:17:31;;;;;;;7.00;6.40;;;27.50;90.40;;;;;;5069838;28;20448;-85
2022/09/01 10:20:04;;;;;;;5.87;5.47;;;29.30;82.60;;;;;;5068212;28;20449;-84
2022/09/01 10:22:31;;;;;;;5.77;5.37;;;30.50;73.20;;;;;;5071765;28;20472;-85
2022/09/01 10:25:00;;;;;;;5.90;5.40;;;30.30;68.50;;;;;;5075454;28;20446;-84
2022/09/01 10:27:30;;;;;;;6.07;5.67;;;29.20;67.80;;;;;;5077024;28;20944;-85
2022/09/01 10:30:02;;;;;;;6.67;6.17;;;27.90;72.40;;;;;;5077048;28;20429;-85
2022/09/01 10:32:36;;;;;;;7.10;6.50;;;26.70;76.20;;;;;;5075576;28;20479;-83
2022/09/01 10:35:07;;;;;;;5.60;5.17;;;26.20;79.30;;;;;;5064571;28;20507;-84
2022/09/01 10:37:34;;;;;;;5.53;5.03;;;26.70;79.00;;;;;;5061122;28;20456;-84
2022/09/01 10:40:14;;;;;;;6.77;5.17;;;26.90;76.20;;;;;;5060566;28;20444;-84
2022/09/01 10:42:42;;;;;;;5.57;5.13;;;27.70;74.70;;;;;;5060778;28;20446;-85
2022/09/01 10:45:20;;;;;;;5.70;5.20;;;27.40;72.70;;;;;;5072386;28;20425;-84
2022/09/01 10:47:50;;;;;;;5.50;5.00;;;27.40;72.60;;;;;;5077469;28;20416;-83
2022/09/01 10:50:26;;;;;;;6.53;5.93;;;27.30;73.10;;;;;;5077005;28;20431;-82
2022/09/01 10:53:08;;;;;;;5.77;5.37;;;27.90;73.00;;;;;;5072037;28;20485;-81
2022/09/01 10:55:40;;;;;;;5.90;5.50;;;28.00;71.90;;;;;;5059401;28;20801;-81
2022/09/01 10:58:39;;;;;;;6.57;6.07;;;27.50;72.80;;;;;;5060722;28;20535;-82
2022/09/01 11:01:05;;;;;;;6.13;5.63;;;27.10;74.30;;;;;;5056370;28;20466;-81
2022/09/01 11:03:53;;;;;;;5.57;5.07;;;26.30;76.10;;;;;;5055551;28;20945;-83
2022/09/01 11:06:52;;;;;;;6.00;5.50;;;25.50;79.40;;;;;;5057084;28;20455;-81
2022/09/01 11:09:22;;;;;;;7.10;5.73;;;24.90;81.80;;;;;;5054915;28;20456;-80
2022/09/01 11:12:12;;;;;;;6.47;5.90;;;24.50;84.10;;;;;;5061734;28;20466;-81
2022/09/01 11:14:49;;;;;;;5.60;5.10;;;23.90;85.20;;;;;;5063925;28;20496;-80
2022/09/01 11:17:20;;;;;;;6.10;5.60;;;23.20;88.70;;;;;;5064112;28;20471;-81
2022/09/01 11:19:56;;;;;;;6.10;5.63;;;22.80;90.60;;;;;;5062017;28;20453;-83
2022/09/01 11:22:42;;;;;;;6.83;6.23;;;22.60;91.80;;;;;;5060491;28;20533;-82
2022/09/01 11:25:33;;;;;;;6.80;5.53;;;22.70;92.30;;;;;;5059980;28;20436;-82
2022/09/01 11:28:33;;;;;;;5.87;5.43;;;22.90;91.90;;;;;;5056869;28;20460;-82
2022/09/01 11:31:10;;;;;;;6.10;5.70;;;23.20;91.40;;;;;;5056994;28;20493;-82
2022/09/01 11:33:49;;;;;;;5.57;5.17;;;24.00;90.80;;;;;;5057130;28;20526;-83
2022/09/01 11:36:27;;;;;;;4.90;4.40;;;27.40;83.60;;;;;;5058459;28;20451;-82
2022/09/01 11:39:02;;;;;;;4.13;3.83;;;31.70;68.60;;;;;;5071800;28;20453;-81
2022/09/01 11:41:33;;;;;;;4.20;3.80;;;34.30;56.30;;;;;;5070251;28;20527;-84
2022/09/01 11:44:01;;;;;;;4.63;4.33;;;34.10;53.50;;;;;;5059231;28;20454;-83
2022/09/01 11:46:31;;;;;;;4.93;4.57;;;33.10;53.50;;;;;;5059343;28;20451;-82
2022/09/01 11:49:03;;;;;;;5.93;5.40;;;31.10;56.20;;;;;;5058501;28;20449;-81
2022/09/01 11:51:42;;;;;;;4.93;4.60;;;29.30;59.30;;;;;;5057933;28;20460;-81
2022/09/01 11:54:09;;;;;;;5.77;5.37;;;27.80;64.40;;;;;;5059526;28;20480;-83
2022/09/01 11:56:36;;;;;;;5.77;5.37;;;26.20;70.00;;;;;;5059699;28;20452;-83
2022/09/01 11:59:03;;;;;;;5.90;5.40;;;25.60;74.10;;;;;;5064417;28;20473;-82
2022/09/01 12:01:33;;;;;;;5.63;5.13;;;25.30;75.80;;;;;;5060708;28;20466;-83
2022/09/01 12:04:18;;;;;;;6.30;5.70;;;24.70;78.30;;;;;;5059357;28;20587;-84
2022/09/01 12:06:55;;;;;;;5.60;5.03;;;24.60;80.00;;;;;;5059094;28;20521;-84
2022/09/01 12:09:22;;;;;;;5.20;4.80;;;24.50;80.90;;;;;;5058726;28;20876;-84
2022/09/01 12:11:50;;;;;;;6.47;5.30;;;24.70;80.50;;;;;;5057477;28;20813;-84
2022/09/01 12:14:21;;;;;;;7.00;6.40;;;24.70;80.80;;;;;;5058295;28;20479;-84
2022/09/01 12:16:58;;;;;;;5.97;5.47;;;24.90;79.80;;;;;;5059411;28;20854;-84
2022/09/01 12:19:27;;;;;;;4.70;4.40;;;25.70;78.70;;;;;;5059197;28;20475;-84
2022/09/01 12:32:41;;;;;;;5.17;4.67;;;24.30;78.90;;;;;;5036405;28;20486;-88
2022/09/01 12:38:32;;;;;;;4.43;4.13;;;27.00;69.20;;;;;;4935962;28;20441;-87
2022/09/01 12:41:25;;;;;;;3.83;3.43;;;29.30;62.70;;;;;;5048432;28;20445;-88
2022/09/01 12:43:52;;;;;;;4.50;4.00;;;30.60;58.10;;;;;;5039405;28;20442;-88
2022/09/01 12:47:09;;;;;;;4.07;3.77;;;31.70;56.70;;;;;;5038149;28;20441;-88
2022/09/01 12:49:55;;;;;;;4.33;3.93;;;32.60;53.40;;;;;;4976287;28;20472;-88
2022/09/01 12:52:55;;;;;;;4.57;4.17;;;32.80;52.60;;;;;;4980062;28;20472;-88
2022/09/01 12:55:25;;;;;;;4.73;4.00;;;32.50;51.80;;;;;;4940202;28;20490;-88
2022/09/01 12:58:13;;;;;;;5.03;4.63;;;31.00;53.80;;;;;;4975325;28;20459;-88
2022/09/01 13:00:57;;;;;;;4.53;4.13;;;29.50;56.70;;;;;;4976312;28;20460;-81
2022/09/01 13:03:26;;;;;;;4.53;4.13;;;28.20;59.30;;;;;;4980402;28;20462;-78
2022/09/01 13:05:54;;;;;;;4.43;4.03;;;29.00;59.40;;;;;;5035306;28;20826;-78
2022/09/01 13:08:24;;;;;;;5.67;5.27;;;28.60;59.40;;;;;;5033915;28;20452;-77
2022/09/01 13:10:54;;;;;;;5.73;5.30;;;28.00;60.50;;;;;;5023027;28;20442;-78